createdAt,value
2018-08-06T00:01:04.909Z,2.00
2018-08-06T00:03:32.145Z,2.00
2018-08-06T00:05:59.396Z,2.10
2018-08-06T00:08:26.654Z,2.70
2018-08-06T00:10:53.880Z,2.37
2018-08-06T00:13:21.156Z,2.00
2018-08-06T00:15:48.390Z,2.33
2018-08-06T00:18:15.748Z,2.13
2018-08-06T00:20:42.995Z,2.00
2018-08-06T00:23:10.259Z,1.93
2018-08-06T00:25:37.600Z,1.97
2018-08-06T00:28:05.081Z,1.80
2018-08-06T00:30:32.640Z,2.10
2018-08-06T00:32:59.964Z,1.80
2018-08-06T00:35:27.233Z,2.53
2018-08-06T00:37:54.463Z,2.13
2018-08-06T00:40:21.950Z,2.70
2018-08-06T00:42:49.679Z,2.00
2018-08-06T00:45:18.232Z,2.17
2018-08-06T00:47:46.154Z,2.13
2018-08-06T00:50:13.536Z,1.70
2018-08-06T00:52:40.784Z,2.40
2018-08-06T00:55:09.242Z,2.30
2018-08-06T00:57:36.520Z,2.03
2018-08-06T01:00:04.744Z,2.30
2018-08-06T01:02:32.021Z,1.93
2018-08-06T01:04:59.272Z,2.20
2018-08-06T01:07:26.511Z,2.27
2018-08-06T01:09:53.772Z,2.47
2018-08-06T01:12:21.020Z,2.73
2018-08-06T01:14:48.273Z,2.93
2018-08-06T01:17:15.486Z,2.30
2018-08-06T01:19:42.787Z,2.07
2018-08-06T01:22:10.030Z,2.20
2018-08-06T01:24:37.284Z,3.70
2018-08-06T01:27:04.518Z,2.30
2018-08-06T01:29:31.788Z,2.40
2018-08-06T01:31:59.030Z,2.27
2018-08-06T01:34:26.383Z,2.30
2018-08-06T01:36:53.743Z,2.40
2018-08-06T01:39:20.973Z,2.03
2018-08-06T01:41:48.232Z,3.87
2018-08-06T01:44:15.494Z,2.37
2018-08-06T01:46:42.740Z,2.53
2018-08-06T01:49:09.980Z,2.63
2018-08-06T01:51:37.246Z,2.80
2018-08-06T01:54:04.600Z,2.40
2018-08-06T01:56:31.840Z,2.27
2018-08-06T01:58:59.353Z,2.33
2018-08-06T02:01:26.569Z,2.23
2018-08-06T02:03:54.228Z,2.40
2018-08-06T02:06:21.476Z,2.10
2018-08-06T02:08:48.700Z,2.47
2018-08-06T02:11:15.980Z,2.40
2018-08-06T02:13:43.227Z,3.17
2018-08-06T02:16:10.489Z,2.13
2018-08-06T02:18:38.027Z,2.30
2018-08-06T02:21:05.313Z,2.70
2018-08-06T02:23:32.540Z,2.70
2018-08-06T02:25:59.795Z,2.30
2018-08-06T02:28:27.135Z,2.60
2018-08-06T02:30:54.372Z,2.40
2018-08-06T02:33:21.651Z,2.67
2018-08-06T02:35:48.897Z,2.13
2018-08-06T02:38:16.163Z,2.40
2018-08-06T02:40:43.396Z,2.30
2018-08-06T02:43:10.652Z,2.20
2018-08-06T02:45:37.913Z,2.20
2018-08-06T02:48:05.372Z,2.70
2018-08-06T02:50:32.608Z,2.90
2018-08-06T02:52:59.868Z,2.20
2018-08-06T02:55:27.115Z,3.30
2018-08-06T02:57:54.384Z,2.60
2018-08-06T03:00:21.725Z,2.67
2018-08-06T03:02:48.958Z,2.70
2018-08-06T03:05:16.778Z,2.93
2018-08-06T03:07:44.738Z,2.33
2018-08-06T03:10:12.263Z,2.37
2018-08-06T03:12:39.736Z,2.60
2018-08-06T03:15:08.016Z,2.47
2018-08-06T03:17:35.459Z,2.40
2018-08-06T03:20:02.736Z,2.40
2018-08-06T03:22:29.984Z,2.60
2018-08-06T03:24:57.220Z,2.50
2018-08-06T03:27:24.495Z,2.30
2018-08-06T03:29:51.803Z,2.60
2018-08-06T03:32:19.079Z,2.80
2018-08-06T03:34:46.308Z,2.53
2018-08-06T03:37:13.571Z,2.67
2018-08-06T03:39:40.918Z,2.50
2018-08-06T03:42:08.211Z,2.77
2018-08-06T03:44:35.524Z,2.33
2018-08-06T03:47:02.785Z,3.03
2018-08-06T03:49:30.036Z,2.17
2018-08-06T03:51:57.309Z,2.80
2018-08-06T03:54:24.640Z,2.80
2018-08-06T03:56:51.904Z,2.27
2018-08-06T03:59:19.222Z,2.50
2018-08-06T04:01:46.493Z,2.60
2018-08-06T04:04:13.764Z,2.80
2018-08-06T04:06:41.030Z,2.30
2018-08-06T04:09:08.724Z,2.37
2018-08-06T04:11:36.025Z,2.87
2018-08-06T04:14:03.284Z,2.60
2018-08-06T04:16:35.733Z,2.90
2018-08-06T04:19:03.007Z,2.50
2018-08-06T04:21:30.247Z,2.40
2018-08-06T04:23:57.511Z,2.60
2018-08-06T04:26:25.080Z,2.70
2018-08-06T04:28:52.365Z,3.23
2018-08-06T04:31:19.624Z,3.50
2018-08-06T04:33:46.880Z,2.90
2018-08-06T04:36:14.181Z,3.13
2018-08-06T04:38:41.468Z,3.17
2018-08-06T04:41:08.706Z,2.60
2018-08-06T04:43:35.952Z,2.40
2018-08-06T04:46:03.272Z,2.87
2018-08-06T04:48:30.494Z,3.20
2018-08-06T04:50:57.806Z,3.27
2018-08-06T04:53:25.033Z,2.60
2018-08-06T04:55:52.728Z,2.50
2018-08-06T04:58:19.968Z,3.57
2018-08-06T05:00:47.223Z,2.90
2018-08-06T05:03:14.448Z,2.83
2018-08-06T05:05:41.712Z,2.80
2018-08-06T05:08:08.964Z,3.20
2018-08-06T05:10:36.208Z,2.40
2018-08-06T05:13:03.470Z,3.33
2018-08-06T05:15:30.705Z,3.10
2018-08-06T05:17:57.981Z,2.83
2018-08-06T05:20:25.320Z,2.83
2018-08-06T05:22:52.576Z,3.40
2018-08-06T05:25:19.825Z,2.63
2018-08-06T05:27:47.080Z,2.97
2018-08-06T05:30:15.249Z,2.20
2018-08-06T05:32:42.708Z,2.30
2018-08-06T05:35:10.160Z,2.20
2018-08-06T05:37:37.400Z,2.73
2018-08-06T05:40:05.122Z,2.60
2018-08-06T05:42:32.321Z,2.50
2018-08-06T05:44:59.713Z,2.57
2018-08-06T05:47:26.952Z,2.23
2018-08-06T05:49:54.313Z,2.00
2018-08-06T05:52:21.535Z,2.40
2018-08-06T05:54:48.800Z,2.37
2018-08-06T05:57:16.035Z,2.07
2018-08-06T05:59:43.417Z,2.33
2018-08-06T06:02:10.696Z,2.10
2018-08-06T06:04:37.944Z,2.03
2018-08-06T06:07:05.582Z,2.67
2018-08-06T06:09:32.835Z,2.03
2018-08-06T06:12:00.180Z,1.80
2018-08-06T06:14:27.553Z,1.80
2018-08-06T06:16:54.785Z,2.10
2018-08-06T06:19:22.037Z,2.63
2018-08-06T06:21:49.292Z,1.80
2018-08-06T06:24:16.540Z,2.67
2018-08-06T06:26:43.812Z,2.10
2018-08-06T06:29:11.092Z,1.90
2018-08-06T06:31:41.001Z,1.50
2018-08-06T06:34:08.733Z,1.93
2018-08-06T06:36:36.015Z,1.83
2018-08-06T06:39:04.267Z,1.53
2018-08-06T06:41:31.507Z,2.50
2018-08-06T06:43:58.748Z,1.60
2018-08-06T06:46:26.020Z,1.63
2018-08-06T06:48:53.358Z,2.00
2018-08-06T06:51:20.620Z,2.10
2018-08-06T06:53:47.864Z,2.33
2018-08-06T06:56:15.240Z,2.00
2018-08-06T06:58:42.536Z,3.30
2018-08-06T07:01:09.810Z,1.73
2018-08-06T07:03:37.089Z,1.70
2018-08-06T07:06:04.352Z,1.60
2018-08-06T07:08:31.654Z,1.60
2018-08-06T07:10:58.920Z,2.00
2018-08-06T07:13:26.159Z,1.40
2018-08-06T07:15:53.448Z,1.27
2018-08-06T07:18:20.724Z,2.10
2018-08-06T07:20:48.046Z,1.70
2018-08-06T07:23:15.301Z,1.50
2018-08-06T07:25:42.564Z,1.80
2018-08-06T07:28:09.857Z,1.23
2018-08-06T07:30:37.153Z,1.40
2018-08-06T07:33:04.494Z,2.00
2018-08-06T07:35:31.751Z,1.83
2018-08-06T07:37:59.032Z,1.40
2018-08-06T07:40:26.312Z,1.50
2018-08-06T07:42:53.605Z,2.17
2018-08-06T07:45:21.156Z,1.40
2018-08-06T07:47:48.968Z,1.53
2018-08-06T07:50:17.199Z,1.90
2018-08-06T07:52:44.496Z,1.57
2018-08-06T07:55:11.788Z,1.93
2018-08-06T07:57:39.681Z,2.23
2018-08-06T08:00:09.088Z,1.60
2018-08-06T08:02:36.333Z,1.70
2018-08-06T08:05:03.914Z,1.53
2018-08-06T08:07:31.189Z,1.73
2018-08-06T08:09:58.461Z,1.50
2018-08-06T08:12:25.778Z,2.30
2018-08-06T08:14:53.037Z,1.47
2018-08-06T08:17:20.358Z,1.50
2018-08-06T08:19:47.774Z,1.60
2018-08-06T08:22:14.963Z,1.80
2018-08-06T08:24:42.245Z,1.80
2018-08-06T08:27:09.484Z,1.87
2018-08-06T08:29:36.724Z,1.70
2018-08-06T08:32:03.997Z,1.40
2018-08-06T08:34:31.244Z,1.77
2018-08-06T08:36:58.485Z,1.50
2018-08-06T08:39:25.703Z,2.20
2018-08-06T08:41:53.096Z,2.20
2018-08-06T08:44:20.348Z,1.70
2018-08-06T08:46:47.720Z,1.30
2018-08-06T08:49:14.959Z,1.97
2018-08-06T08:51:42.293Z,1.80
2018-08-06T08:54:09.597Z,1.90
2018-08-06T08:56:36.868Z,1.60
2018-08-06T08:59:04.247Z,1.73
2018-08-06T09:01:31.609Z,1.80
2018-08-06T09:03:58.970Z,2.70
2018-08-06T09:06:26.205Z,1.90
2018-08-06T09:08:53.469Z,1.77
2018-08-06T09:11:20.731Z,1.73
2018-08-06T09:13:48.029Z,1.57
2018-08-06T09:16:15.305Z,1.73
2018-08-06T09:18:42.580Z,2.20
2018-08-06T09:21:09.937Z,2.00
2018-08-06T09:23:37.180Z,1.80
2018-08-06T09:26:04.465Z,1.80
2018-08-06T09:28:31.777Z,1.73
2018-08-06T09:30:59.115Z,2.00
2018-08-06T09:33:26.380Z,2.50
2018-08-06T09:35:53.636Z,1.70
2018-08-06T09:38:20.892Z,2.20
2018-08-06T09:40:48.170Z,2.13
2018-08-06T09:43:15.409Z,2.17
2018-08-06T09:45:42.708Z,1.90
2018-08-06T09:48:10.078Z,2.17
2018-08-06T09:50:37.341Z,2.30
2018-08-06T09:53:04.628Z,1.80
2018-08-06T09:55:31.908Z,1.83
2018-08-06T09:57:59.171Z,1.90
2018-08-06T10:00:31.845Z,2.50
2018-08-06T10:03:00.315Z,1.90
2018-08-06T10:05:28.275Z,1.53
2018-08-06T10:07:55.515Z,2.73
2018-08-06T10:10:23.039Z,2.00
2018-08-06T10:12:50.396Z,2.30
2018-08-06T10:15:18.407Z,2.70
2018-08-06T10:17:46.764Z,2.00
2018-08-06T10:20:15.870Z,1.80
2018-08-06T10:22:43.174Z,1.77
2018-08-06T10:25:11.699Z,2.20
2018-08-06T10:27:39.575Z,2.23
2018-08-06T10:30:11.664Z,2.00
2018-08-06T10:32:38.948Z,2.23
2018-08-06T10:35:06.797Z,2.13
2018-08-06T10:37:34.514Z,2.27
2018-08-06T10:40:02.344Z,1.90
2018-08-06T10:42:29.620Z,3.50
2018-08-06T10:44:56.956Z,1.60
2018-08-06T10:47:24.434Z,2.03
2018-08-06T10:49:51.680Z,2.50
2018-08-06T10:52:18.981Z,2.50
2018-08-06T10:54:46.360Z,2.20
2018-08-06T10:57:13.776Z,2.43
2018-08-06T10:59:41.034Z,2.43
2018-08-06T11:02:08.283Z,2.13
2018-08-06T11:04:35.628Z,2.67
2018-08-06T11:07:02.886Z,2.30
2018-08-06T11:09:30.425Z,2.60
2018-08-06T11:11:57.673Z,2.57
2018-08-06T11:14:25.057Z,2.27
2018-08-06T11:16:52.261Z,2.60
2018-08-06T11:19:19.539Z,2.50
2018-08-06T11:21:46.801Z,3.00
2018-08-06T11:24:14.032Z,2.30
2018-08-06T11:26:41.283Z,2.50
2018-08-06T11:29:08.616Z,2.33
2018-08-06T11:31:35.883Z,2.00
2018-08-06T11:34:03.123Z,2.47
2018-08-06T11:36:30.396Z,2.10
2018-08-06T11:38:57.661Z,2.10
2018-08-06T11:41:24.909Z,2.13
2018-08-06T11:43:52.188Z,2.23
2018-08-06T11:46:19.459Z,1.80
2018-08-06T11:48:46.905Z,1.80
2018-08-06T11:51:14.134Z,1.90
2018-08-06T11:53:41.488Z,2.40
2018-08-06T11:56:08.724Z,2.40
2018-08-06T11:58:36.078Z,2.23
2018-08-06T12:01:03.361Z,1.97
2018-08-06T12:03:30.680Z,2.13
2018-08-06T12:05:57.980Z,2.40
2018-08-06T12:08:25.288Z,2.10
2018-08-06T12:10:52.553Z,1.77
2018-08-06T12:13:19.910Z,2.17
2018-08-06T12:15:47.212Z,2.07
2018-08-06T12:18:14.686Z,2.27
2018-08-06T12:20:41.951Z,2.10
2018-08-06T12:23:09.187Z,2.13
2018-08-06T12:25:36.466Z,2.20
2018-08-06T12:28:03.767Z,1.93
2018-08-06T12:30:31.023Z,2.10
2018-08-06T12:32:58.308Z,2.03
2018-08-06T12:35:25.577Z,2.07
2018-08-06T12:37:52.833Z,2.43
2018-08-06T12:40:21.437Z,2.10
2018-08-06T12:42:48.704Z,2.20
2018-08-06T12:45:16.728Z,2.60
2018-08-06T12:47:44.396Z,2.57
2018-08-06T12:50:12.824Z,2.70
2018-08-06T12:52:41.008Z,2.30
2018-08-06T12:55:09.528Z,2.03
2018-08-06T12:57:37.176Z,2.13
2018-08-06T13:00:05.609Z,2.40
2018-08-06T13:02:32.885Z,1.63
2018-08-06T13:05:00.215Z,1.90
2018-08-06T13:07:27.509Z,2.07
2018-08-06T13:09:54.771Z,2.23
2018-08-06T13:12:21.996Z,2.50
2018-08-06T13:14:49.284Z,2.57
2018-08-06T13:17:16.514Z,2.47
2018-08-06T13:19:43.771Z,2.10
2018-08-06T13:22:11.036Z,2.33
2018-08-06T13:24:38.388Z,2.40
2018-08-06T13:27:05.665Z,2.57
2018-08-06T13:29:33.012Z,2.10
2018-08-06T13:32:00.259Z,2.40
2018-08-06T13:34:27.551Z,2.33
2018-08-06T13:36:54.858Z,2.43
2018-08-06T13:39:22.084Z,2.50
2018-08-06T13:41:49.356Z,2.07
2018-08-06T13:44:16.592Z,2.10
2018-08-06T13:46:44.039Z,2.47
2018-08-06T13:49:11.231Z,2.40
2018-08-06T13:51:38.488Z,2.80
2018-08-06T13:54:05.797Z,2.10
2018-08-06T13:56:33.072Z,2.47
2018-08-06T13:59:00.342Z,2.60
2018-08-06T14:01:27.575Z,1.97
2018-08-06T14:03:55.246Z,2.83
2018-08-06T14:06:22.505Z,2.53
2018-08-06T14:08:49.775Z,2.73
2018-08-06T14:11:17.149Z,2.50
2018-08-06T14:13:45.159Z,2.17
2018-08-06T14:16:12.498Z,2.57
2018-08-06T14:18:39.892Z,2.67
2018-08-06T14:21:07.231Z,2.27
2018-08-06T14:23:34.515Z,2.47
2018-08-06T14:26:01.989Z,2.40
2018-08-06T14:28:29.324Z,1.97
2018-08-06T14:30:56.612Z,2.30
2018-08-06T14:33:23.985Z,2.33
2018-08-06T14:35:51.260Z,2.23
2018-08-06T14:38:18.509Z,2.67
2018-08-06T14:40:45.859Z,2.57
2018-08-06T14:43:13.122Z,2.10
2018-08-06T14:45:40.456Z,2.70
2018-08-06T14:48:07.768Z,2.50
2018-08-06T14:50:35.088Z,2.20
2018-08-06T14:53:02.337Z,2.10
2018-08-06T14:55:29.616Z,2.50
2018-08-06T14:57:56.877Z,2.67
2018-08-06T15:00:24.189Z,2.50
2018-08-06T15:02:52.770Z,2.50
2018-08-06T15:05:20.033Z,2.57
2018-08-06T15:07:47.455Z,2.20
2018-08-06T15:10:15.250Z,2.60
2018-08-06T15:12:42.631Z,2.60
2018-08-06T15:15:11.814Z,2.87
2018-08-06T15:17:39.143Z,2.63
2018-08-06T15:20:08.214Z,2.50
2018-08-06T15:22:35.570Z,2.53
2018-08-06T15:25:02.932Z,2.90
2018-08-06T15:27:30.320Z,2.60
2018-08-06T15:29:57.660Z,2.70
2018-08-06T15:32:24.949Z,2.70
2018-08-06T15:34:52.344Z,2.30
2018-08-06T15:37:19.844Z,2.90
2018-08-06T15:39:47.043Z,2.87
2018-08-06T15:42:14.308Z,2.77
2018-08-06T15:44:41.578Z,3.40
2018-08-06T15:47:08.890Z,3.70
2018-08-06T15:49:36.284Z,3.30
2018-08-06T15:52:03.635Z,2.57
2018-08-06T15:54:30.992Z,3.17
2018-08-06T15:56:58.232Z,3.03
2018-08-06T15:59:25.534Z,2.67
2018-08-06T16:01:52.804Z,3.07
2018-08-06T16:04:20.138Z,3.03
2018-08-06T16:06:47.449Z,2.70
2018-08-06T16:09:14.705Z,3.73
2018-08-06T16:11:41.977Z,2.50
2018-08-06T16:14:09.215Z,3.27
2018-08-06T16:16:36.500Z,2.70
2018-08-06T16:19:03.933Z,2.47
2018-08-06T16:21:31.207Z,3.10
2018-08-06T16:23:58.465Z,3.30
2018-08-06T16:26:25.768Z,2.60
2018-08-06T16:28:53.226Z,2.97
2018-08-06T16:31:20.592Z,3.40
2018-08-06T16:33:47.841Z,2.43
2018-08-06T16:36:15.096Z,2.90
2018-08-06T16:38:42.433Z,2.73
2018-08-06T16:41:09.784Z,2.97
2018-08-06T16:43:37.049Z,3.00
2018-08-06T16:46:04.409Z,3.37
2018-08-06T16:48:31.685Z,3.07
2018-08-06T16:50:58.924Z,2.60
2018-08-06T16:53:26.247Z,2.87
2018-08-06T16:55:53.487Z,2.97
2018-08-06T16:58:20.766Z,2.80
2018-08-06T17:00:48.064Z,3.30
2018-08-06T17:03:15.476Z,2.93
2018-08-06T17:05:42.702Z,3.30
2018-08-06T17:08:10.010Z,3.00
2018-08-06T17:10:37.245Z,3.37
2018-08-06T17:13:04.511Z,3.67
2018-08-06T17:15:31.836Z,3.40
2018-08-06T17:17:59.092Z,3.50
2018-08-06T17:20:26.733Z,3.77
2018-08-06T17:22:54.281Z,3.20
2018-08-06T17:25:21.629Z,3.00
2018-08-06T17:27:48.899Z,2.67
2018-08-06T17:30:17.529Z,3.57
2018-08-06T17:32:45.227Z,3.03
2018-08-06T17:35:13.022Z,3.40
2018-08-06T17:37:40.470Z,3.50
2018-08-06T17:40:11.200Z,4.20
2018-08-06T17:42:39.320Z,4.13
2018-08-06T17:45:07.660Z,4.17
2018-08-06T17:47:34.901Z,3.60
2018-08-06T17:50:02.299Z,3.57
2018-08-06T17:52:29.521Z,3.37
2018-08-06T17:54:56.789Z,3.40
2018-08-06T17:57:24.092Z,3.50
2018-08-06T17:59:51.444Z,4.00
2018-08-06T18:02:18.892Z,5.20
2018-08-06T18:04:46.197Z,4.10
2018-08-06T18:07:13.577Z,3.60
2018-08-06T18:09:40.863Z,4.70
2018-08-06T18:12:08.176Z,3.50
2018-08-06T18:14:35.497Z,3.07
2018-08-06T18:17:02.810Z,3.43
2018-08-06T18:19:30.220Z,4.10
2018-08-06T18:21:57.559Z,3.60
2018-08-06T18:24:24.836Z,3.40
2018-08-06T18:26:52.122Z,3.30
2018-08-06T18:29:19.406Z,4.70
2018-08-06T18:31:46.799Z,3.13
2018-08-06T18:34:14.119Z,4.47
2018-08-06T18:36:41.432Z,3.80
2018-08-06T18:39:10.046Z,3.37
2018-08-06T18:41:37.379Z,3.60
2018-08-06T18:44:04.777Z,4.03
2018-08-06T18:46:32.087Z,3.67
2018-08-06T18:48:59.590Z,4.10
2018-08-06T18:51:26.913Z,3.47
2018-08-06T18:53:54.279Z,4.00
2018-08-06T18:56:21.616Z,3.50
2018-08-06T18:58:48.899Z,3.87
2018-08-06T19:01:16.240Z,4.20
2018-08-06T19:03:43.534Z,3.70
2018-08-06T19:06:10.768Z,3.77
2018-08-06T19:08:38.070Z,4.47
2018-08-06T19:11:05.352Z,3.80
2018-08-06T19:13:38.073Z,4.10
2018-08-06T19:16:05.432Z,3.83
2018-08-06T19:18:38.040Z,4.40
2018-08-06T19:21:05.341Z,3.40
2018-08-06T19:23:32.609Z,4.50
2018-08-06T19:26:00.037Z,4.47
2018-08-06T19:28:27.385Z,5.50
2018-08-06T19:31:00.050Z,4.60
2018-08-06T19:33:27.334Z,5.00
2018-08-06T19:35:54.624Z,5.10
2018-08-06T19:38:21.904Z,4.77
2018-08-06T19:40:49.269Z,5.10
2018-08-06T19:43:21.824Z,4.97
2018-08-06T19:45:49.129Z,5.13
2018-08-06T19:48:16.481Z,4.80
2018-08-06T19:50:44.483Z,5.37
2018-08-06T19:53:11.876Z,4.30
2018-08-06T19:55:44.594Z,4.80
2018-08-06T19:58:11.888Z,4.53
2018-08-06T20:00:39.170Z,5.20
2018-08-06T20:03:06.481Z,4.77
2018-08-06T20:05:33.880Z,4.70
2018-08-06T20:08:01.227Z,4.40
2018-08-06T20:10:28.525Z,5.67
2018-08-06T20:12:55.761Z,5.20
2018-08-06T20:15:23.098Z,5.03
2018-08-06T20:17:50.495Z,5.60
2018-08-06T20:20:17.753Z,4.40
2018-08-06T20:22:45.556Z,4.37
2018-08-06T20:25:15.168Z,5.20
2018-08-06T20:27:42.419Z,5.90
2018-08-06T20:30:10.406Z,4.60
2018-08-06T20:32:38.052Z,5.40
2018-08-06T20:35:07.049Z,4.73
2018-08-06T20:37:34.505Z,5.33
2018-08-06T20:40:02.048Z,6.20
2018-08-06T20:42:29.334Z,4.57
2018-08-06T20:44:56.592Z,4.53
2018-08-06T20:47:23.943Z,5.40
2018-08-06T20:49:51.285Z,5.23
2018-08-06T20:52:18.740Z,4.80
2018-08-06T20:54:46.168Z,4.90
2018-08-06T20:57:13.544Z,6.30
2018-08-06T20:59:40.815Z,5.83
2018-08-06T21:02:08.122Z,5.83
2018-08-06T21:04:35.401Z,5.70
2018-08-06T21:07:03.086Z,5.80
2018-08-06T21:09:30.436Z,6.10
2018-08-06T21:11:57.676Z,5.23
2018-08-06T21:14:24.943Z,5.67
2018-08-06T21:16:58.164Z,5.60
2018-08-06T21:19:25.824Z,5.60
2018-08-06T21:21:53.286Z,4.90
2018-08-06T21:24:20.681Z,6.50
2018-08-06T21:26:48.089Z,5.30
2018-08-06T21:29:15.403Z,5.03
2018-08-06T21:31:42.759Z,6.00
2018-08-06T21:34:10.098Z,6.37
2018-08-06T21:36:37.356Z,5.60
2018-08-06T21:39:07.085Z,6.77
2018-08-06T21:41:34.320Z,6.33
2018-08-06T21:44:01.678Z,6.70
2018-08-06T21:46:29.032Z,6.00
2018-08-06T21:48:56.279Z,5.50
2018-08-06T21:51:23.645Z,5.33
2018-08-06T21:53:50.904Z,5.67
2018-08-06T21:56:18.252Z,5.97
2018-08-06T21:58:45.483Z,6.60
2018-08-06T22:01:12.719Z,5.93
2018-08-06T22:03:40.002Z,6.60
2018-08-06T22:06:07.312Z,5.63
2018-08-06T22:08:34.603Z,5.63
2018-08-06T22:11:01.849Z,6.50
2018-08-06T22:13:29.101Z,6.03
2018-08-06T22:15:56.364Z,5.77
2018-08-06T22:18:23.624Z,6.43
2018-08-06T22:20:50.856Z,6.53
2018-08-06T22:23:18.093Z,5.97
2018-08-06T22:25:45.335Z,6.53
2018-08-06T22:28:12.937Z,5.80
2018-08-06T22:30:40.161Z,5.70
2018-08-06T22:33:07.422Z,6.10
2018-08-06T22:35:34.668Z,6.60
2018-08-06T22:38:01.989Z,5.83
2018-08-06T22:40:29.267Z,6.13
2018-08-06T22:42:56.560Z,6.00
2018-08-06T22:45:23.831Z,6.30
2018-08-06T22:47:51.064Z,5.77
2018-08-06T22:50:18.328Z,6.57
2018-08-06T22:52:45.612Z,6.90
2018-08-06T22:55:13.212Z,6.20
2018-08-06T22:57:40.928Z,6.87
2018-08-06T23:00:09.868Z,6.00
2018-08-06T23:02:37.122Z,5.90
2018-08-06T23:05:04.879Z,7.50
2018-08-06T23:07:32.136Z,6.93
2018-08-06T23:09:59.407Z,5.97
2018-08-06T23:12:26.675Z,6.03
2018-08-06T23:14:53.967Z,5.90
2018-08-06T23:17:21.205Z,6.27
2018-08-06T23:19:48.501Z,6.20
2018-08-06T23:22:15.715Z,6.50
2018-08-06T23:24:43.076Z,6.13
2018-08-06T23:27:10.329Z,7.00
2018-08-06T23:29:37.556Z,6.53
2018-08-06T23:32:04.936Z,7.10
2018-08-06T23:34:32.484Z,5.60
2018-08-06T23:36:59.765Z,6.40
2018-08-06T23:39:27.010Z,6.37
2018-08-06T23:41:54.276Z,6.17
2018-08-06T23:44:21.587Z,6.60
2018-08-06T23:46:48.845Z,6.10
2018-08-06T23:49:16.093Z,6.43
2018-08-06T23:51:43.317Z,6.57
2018-08-06T23:54:10.573Z,5.60
2018-08-06T23:56:37.839Z,6.00
2018-08-06T23:59:05.333Z,5.90
